sensor_id;sensor_type;location;lat;lon;timestamp;P1;durP1;ratioP1;P2;durP2;ratioP2
6862;SDS011;3470;48.738;9.616;2024-03-17T00:00:55;12.40;;;10.03;;
6862;SDS011;3470;48.738;9.616;2024-03-17T00:03:24;14.97;;;10.30;;
6862;SDS011;3470;48.738;9.616;2024-03-17T00:05:54;14.73;;;10.73;;
6862;SDS011;3470;48.738;9.616;2024-03-17T00:08:24;15.20;;;11.27;;
6862;SDS011;3470;48.738;9.616;2024-03-17T00:10:50;15.03;;;10.87;;
6862;SDS011;3470;48.738;9.616;2024-03-17T00:13:16;12.97;;;10.23;;
6862;SDS011;3470;48.738;9.616;2024-03-17T00:15:42;11.97;;;9.10;;
6862;SDS011;3470;48.738;9.616;2024-03-17T00:18:08;13.30;;;9.07;;
6862;SDS011;3470;48.738;9.616;2024-03-17T00:20:35;11.03;;;8.27;;
6862;SDS011;3470;48.738;9.616;2024-03-17T00:23:04;13.80;;;8.83;;
6862;SDS011;3470;48.738;9.616;2024-03-17T00:25:34;15.30;;;10.03;;
6862;SDS011;3470;48.738;9.616;2024-03-17T00:28:00;14.17;;;9.43;;
6862;SDS011;3470;48.738;9.616;2024-03-17T00:30:27;12.53;;;8.87;;
6862;SDS011;3470;48.738;9.616;2024-03-17T00:32:52;13.23;;;9.30;;
6862;SDS011;3470;48.738;9.616;2024-03-17T00:35:18;10.27;;;7.20;;
6862;SDS011;3470;48.738;9.616;2024-03-17T00:37:49;8.80;;;6.53;;
6862;SDS011;3470;48.738;9.616;2024-03-17T00:40:17;9.40;;;6.97;;
6862;SDS011;3470;48.738;9.616;2024-03-17T05:54:32;15.23;;;9.23;;
6862;SDS011;3470;48.738;9.616;2024-03-17T05:56:58;17.17;;;11.20;;
6862;SDS011;3470;48.738;9.616;2024-03-17T05:59:24;18.40;;;13.20;;
6862;SDS011;3470;48.738;9.616;2024-03-17T06:01:50;20.10;;;12.33;;
6862;SDS011;3470;48.738;9.616;2024-03-17T06:04:15;19.03;;;13.53;;
6862;SDS011;3470;48.738;9.616;2024-03-17T06:06:42;18.97;;;13.23;;
6862;SDS011;3470;48.738;9.616;2024-03-17T06:09:07;20.03;;;12.20;;
6862;SDS011;3470;48.738;9.616;2024-03-17T06:11:35;17.77;;;12.10;;
6862;SDS011;3470;48.738;9.616;2024-03-17T06:14:01;21.23;;;12.40;;
6862;SDS011;3470;48.738;9.616;2024-03-17T06:16:29;17.33;;;12.37;;
6862;SDS011;3470;48.738;9.616;2024-03-17T06:18:55;18.00;;;12.10;;
6862;SDS011;3470;48.738;9.616;2024-03-17T06:21:21;18.37;;;12.57;;
6862;SDS011;3470;48.738;9.616;2024-03-17T06:23:47;19.90;;;13.93;;
6862;SDS011;3470;48.738;9.616;2024-03-17T06:26:12;16.83;;;13.07;;
6862;SDS011;3470;48.738;9.616;2024-03-17T06:28:38;16.47;;;12.57;;
6862;SDS011;3470;48.738;9.616;2024-03-17T06:31:03;13.23;;;11.03;;
6862;SDS011;3470;48.738;9.616;2024-03-17T06:33:32;14.63;;;9.90;;
6862;SDS011;3470;48.738;9.616;2024-03-17T06:35:58;9.40;;;8.37;;
6862;SDS011;3470;48.738;9.616;2024-03-17T06:38:29;8.90;;;7.70;;
6862;SDS011;3470;48.738;9.616;2024-03-17T06:40:54;7.50;;;6.70;;
6862;SDS011;3470;48.738;9.616;2024-03-17T06:43:20;6.67;;;5.07;;
6862;SDS011;3470;48.738;9.616;2024-03-17T06:45:58;6.00;;;5.00;;
6862;SDS011;3470;48.738;9.616;2024-03-17T06:48:25;6.50;;;4.90;;
6862;SDS011;3470;48.738;9.616;2024-03-17T06:50:51;5.77;;;5.17;;
6862;SDS011;3470;48.738;9.616;2024-03-17T06:53:19;5.63;;;4.93;;
6862;SDS011;3470;48.738;9.616;2024-03-17T06:55:57;6.70;;;5.28;;
6862;SDS011;3470;48.738;9.616;2024-03-17T06:58:24;6.03;;;4.88;;
6862;SDS011;3470;48.738;9.616;2024-03-17T17:58:48;3.07;;;2.13;;
6862;SDS011;3470;48.738;9.616;2024-03-17T18:01:14;3.60;;;2.20;;
6862;SDS011;3470;48.738;9.616;2024-03-17T18:03:41;4.83;;;2.33;;
6862;SDS011;3470;48.738;9.616;2024-03-17T18:06:07;4.27;;;2.33;;
6862;SDS011;3470;48.738;9.616;2024-03-17T18:08:33;4.77;;;2.40;;
6862;SDS011;3470;48.738;9.616;2024-03-17T18:10:59;6.80;;;3.10;;
6862;SDS011;3470;48.738;9.616;2024-03-17T18:13:28;4.43;;;2.50;;
6862;SDS011;3470;48.738;9.616;2024-03-17T18:15:59;5.43;;;2.70;;
6862;SDS011;3470;48.738;9.616;2024-03-17T18:18:30;3.73;;;1.93;;
6862;SDS011;3470;48.738;9.616;2024-03-17T18:21:00;2.60;;;2.33;;
6862;SDS011;3470;48.738;9.616;2024-03-17T18:23:27;2.30;;;2.07;;
6862;SDS011;3470;48.738;9.616;2024-03-17T18:25:56;4.23;;;2.20;;
6862;SDS011;3470;48.738;9.616;2024-03-17T18:28:23;4.37;;;2.00;;
6862;SDS011;3470;48.738;9.616;2024-03-17T18:30:52;5.53;;;2.20;;
6862;SDS011;3470;48.738;9.616;2024-03-17T18:33:18;4.37;;;2.67;;
6862;SDS011;3470;48.738;9.616;2024-03-17T18:35:53;4.83;;;2.33;;
6862;SDS011;3470;48.738;9.616;2024-03-17T18:38:20;2.93;;;2.00;;
6862;SDS011;3470;48.738;9.616;2024-03-17T18:40:47;3.20;;;2.40;;
6862;SDS011;3470;48.738;9.616;2024-03-17T18:43:21;6.90;;;4.57;;
6862;SDS011;3470;48.738;9.616;2024-03-17T18:45:48;15.67;;;13.23;;
6862;SDS011;3470;48.738;9.616;2024-03-17T18:48:14;4.43;;;3.60;;
6862;SDS011;3470;48.738;9.616;2024-03-17T18:50:39;4.53;;;2.47;;
6862;SDS011;3470;48.738;9.616;2024-03-17T18:53:05;4.63;;;2.30;;
6862;SDS011;3470;48.738;9.616;2024-03-17T18:55:32;4.00;;;2.40;;
6862;SDS011;3470;48.738;9.616;2024-03-17T18:57:58;4.20;;;3.00;;
6862;SDS011;3470;48.738;9.616;2024-03-17T19:00:23;4.93;;;2.30;;
6862;SDS011;3470;48.738;9.616;2024-03-17T19:02:52;5.13;;;2.70;;
6862;SDS011;3470;48.738;9.616;2024-03-17T19:05:18;5.17;;;2.63;;
6862;SDS011;3470;48.738;9.616;2024-03-17T19:07:44;4.30;;;2.60;;
6862;SDS011;3470;48.738;9.616;2024-03-17T19:10:10;4.53;;;2.70;;
6862;SDS011;3470;48.738;9.616;2024-03-17T19:12:43;3.73;;;2.60;;
6862;SDS011;3470;48.738;9.616;2024-03-17T19:15:09;4.90;;;2.80;;
6862;SDS011;3470;48.738;9.616;2024-03-17T19:17:35;4.43;;;3.47;;
6862;SDS011;3470;48.738;9.616;2024-03-17T19:20:03;5.47;;;3.30;;
6862;SDS011;3470;48.738;9.616;2024-03-17T19:22:37;7.13;;;5.63;;
6862;SDS011;3470;48.738;9.616;2024-03-17T19:25:03;4.60;;;3.10;;
6862;SDS011;3470;48.738;9.616;2024-03-17T19:27:32;5.53;;;3.63;;
6862;SDS011;3470;48.738;9.616;2024-03-17T19:29:58;4.27;;;3.13;;
6862;SDS011;3470;48.738;9.616;2024-03-17T19:32:23;4.77;;;2.80;;
6862;SDS011;3470;48.738;9.616;2024-03-17T19:34:49;5.87;;;3.33;;
6862;SDS011;3470;48.738;9.616;2024-03-17T19:37:16;4.30;;;2.90;;
6862;SDS011;3470;48.738;9.616;2024-03-17T19:39:41;5.13;;;3.20;;
6862;SDS011;3470;48.738;9.616;2024-03-17T19:42:07;5.23;;;2.63;;
6862;SDS011;3470;48.738;9.616;2024-03-17T19:44:32;4.67;;;3.40;;
6862;SDS011;3470;48.738;9.616;2024-03-17T19:46:58;3.30;;;2.70;;
6862;SDS011;3470;48.738;9.616;2024-03-17T19:49:26;3.90;;;3.10;;
6862;SDS011;3470;48.738;9.616;2024-03-17T19:51:52;5.37;;;3.27;;
6862;SDS011;3470;48.738;9.616;2024-03-17T19:54:17;4.83;;;3.03;;
6862;SDS011;3470;48.738;9.616;2024-03-17T19:56:43;4.07;;;3.20;;
6862;SDS011;3470;48.738;9.616;2024-03-17T19:59:09;3.73;;;3.20;;
6862;SDS011;3470;48.738;9.616;2024-03-17T20:01:35;5.90;;;2.90;;
6862;SDS011;3470;48.738;9.616;2024-03-17T20:04:01;3.90;;;2.57;;
6862;SDS011;3470;48.738;9.616;2024-03-17T20:06:26;5.07;;;3.10;;
6862;SDS011;3470;48.738;9.616;2024-03-17T20:08:53;4.47;;;3.67;;
6862;SDS011;3470;48.738;9.616;2024-03-17T20:11:20;5.43;;;3.20;;
6862;SDS011;3470;48.738;9.616;2024-03-17T20:13:49;4.23;;;2.77;;
6862;SDS011;3470;48.738;9.616;2024-03-17T20:16:16;6.03;;;3.37;;
6862;SDS011;3470;48.738;9.616;2024-03-17T20:18:45;5.37;;;3.67;;
6862;SDS011;3470;48.738;9.616;2024-03-17T20:21:11;5.07;;;3.57;;
6862;SDS011;3470;48.738;9.616;2024-03-17T20:23:37;5.17;;;4.17;;
6862;SDS011;3470;48.738;9.616;2024-03-17T20:26:02;3.97;;;3.30;;
6862;SDS011;3470;48.738;9.616;2024-03-17T20:28:29;6.60;;;3.97;;
6862;SDS011;3470;48.738;9.616;2024-03-17T20:30:55;4.17;;;3.30;;
6862;SDS011;3470;48.738;9.616;2024-03-17T20:33:20;4.30;;;3.20;;
6862;SDS011;3470;48.738;9.616;2024-03-17T20:35:46;5.07;;;3.63;;
6862;SDS011;3470;48.738;9.616;2024-03-17T20:38:12;4.90;;;3.37;;
6862;SDS011;3470;48.738;9.616;2024-03-17T20:40:39;4.67;;;3.40;;
6862;SDS011;3470;48.738;9.616;2024-03-17T20:43:05;4.47;;;3.43;;
6862;SDS011;3470;48.738;9.616;2024-03-17T20:45:30;5.13;;;3.40;;
6862;SDS011;3470;48.738;9.616;2024-03-17T20:47:56;5.50;;;3.93;;
6862;SDS011;3470;48.738;9.616;2024-03-17T20:50:23;4.10;;;3.60;;
6862;SDS011;3470;48.738;9.616;2024-03-17T20:52:49;3.57;;;3.20;;
6862;SDS011;3470;48.738;9.616;2024-03-17T20:55:15;7.33;;;3.83;;
6862;SDS011;3470;48.738;9.616;2024-03-17T20:57:44;6.40;;;4.00;;
6862;SDS011;3470;48.738;9.616;2024-03-17T21:00:10;4.53;;;3.57;;
6862;SDS011;3470;48.738;9.616;2024-03-17T21:02:48;6.50;;;4.00;;
6862;SDS011;3470;48.738;9.616;2024-03-17T21:05:16;5.33;;;4.00;;
6862;SDS011;3470;48.738;9.616;2024-03-17T21:07:43;4.37;;;3.47;;
6862;SDS011;3470;48.738;9.616;2024-03-17T21:10:09;6.10;;;4.00;;
6862;SDS011;3470;48.738;9.616;2024-03-17T21:12:36;6.83;;;3.80;;
6862;SDS011;3470;48.738;9.616;2024-03-17T21:15:04;5.93;;;3.57;;
6862;SDS011;3470;48.738;9.616;2024-03-17T21:17:30;4.83;;;3.73;;
6862;SDS011;3470;48.738;9.616;2024-03-17T21:19:56;6.30;;;4.10;;
6862;SDS011;3470;48.738;9.616;2024-03-17T21:22:22;5.83;;;3.90;;
6862;SDS011;3470;48.738;9.616;2024-03-17T21:24:48;6.17;;;3.80;;
6862;SDS011;3470;48.738;9.616;2024-03-17T21:27:14;4.40;;;3.73;;
6862;SDS011;3470;48.738;9.616;2024-03-17T21:29:40;6.40;;;4.43;;
6862;SDS011;3470;48.738;9.616;2024-03-17T21:32:06;4.97;;;3.80;;
6862;SDS011;3470;48.738;9.616;2024-03-17T21:34:32;4.73;;;3.53;;
6862;SDS011;3470;48.738;9.616;2024-03-17T21:36:57;4.80;;;3.60;;
6862;SDS011;3470;48.738;9.616;2024-03-17T21:39:23;4.40;;;4.00;;
6862;SDS011;3470;48.738;9.616;2024-03-17T21:41:50;6.17;;;4.40;;
6862;SDS011;3470;48.738;9.616;2024-03-17T21:44:16;5.13;;;3.67;;
6862;SDS011;3470;48.738;9.616;2024-03-17T21:46:42;6.70;;;4.50;;
6862;SDS011;3470;48.738;9.616;2024-03-17T21:49:08;5.77;;;3.80;;
6862;SDS011;3470;48.738;9.616;2024-03-17T21:51:33;6.67;;;4.20;;
6862;SDS011;3470;48.738;9.616;2024-03-17T21:53:59;6.60;;;4.10;;
6862;SDS011;3470;48.738;9.616;2024-03-17T21:56:24;7.63;;;4.57;;
6862;SDS011;3470;48.738;9.616;2024-03-17T21:58:50;6.50;;;4.37;;
6862;SDS011;3470;48.738;9.616;2024-03-17T22:01:15;5.37;;;4.20;;
6862;SDS011;3470;48.738;9.616;2024-03-17T22:03:41;6.40;;;4.43;;
6862;SDS011;3470;48.738;9.616;2024-03-17T22:06:07;7.17;;;4.10;;
6862;SDS011;3470;48.738;9.616;2024-03-17T22:08:32;8.03;;;4.33;;
6862;SDS011;3470;48.738;9.616;2024-03-17T22:10:58;6.53;;;4.60;;
6862;SDS011;3470;48.738;9.616;2024-03-17T22:13:27;4.83;;;4.13;;
6862;SDS011;3470;48.738;9.616;2024-03-17T22:18:21;4.90;;;4.30;;
6862;SDS011;3470;48.738;9.616;2024-03-17T22:21:00;5.13;;;4.27;;
6862;SDS011;3470;48.738;9.616;2024-03-17T22:23:30;5.23;;;4.37;;
6862;SDS011;3470;48.738;9.616;2024-03-17T22:28:23;7.57;;;4.57;;
6862;SDS011;3470;48.738;9.616;2024-03-17T22:30:51;8.50;;;4.67;;
6862;SDS011;3470;48.738;9.616;2024-03-17T22:33:24;6.10;;;4.33;;
6862;SDS011;3470;48.738;9.616;2024-03-17T22:35:55;7.33;;;4.43;;
6862;SDS011;3470;48.738;9.616;2024-03-17T22:38:30;4.43;;;3.97;;
6862;SDS011;3470;48.738;9.616;2024-03-17T22:40:57;5.00;;;3.63;;
6862;SDS011;3470;48.738;9.616;2024-03-17T22:43:24;5.33;;;4.10;;
6862;SDS011;3470;48.738;9.616;2024-03-17T22:45:52;4.07;;;3.67;;
6862;SDS011;3470;48.738;9.616;2024-03-17T22:48:21;4.00;;;3.50;;
6862;SDS011;3470;48.738;9.616;2024-03-17T22:50:49;3.70;;;3.40;;
6862;SDS011;3470;48.738;9.616;2024-03-17T22:53:15;5.80;;;4.10;;
6862;SDS011;3470;48.738;9.616;2024-03-17T22:58:17;4.77;;;4.30;;
6862;SDS011;3470;48.738;9.616;2024-03-17T23:00:44;6.70;;;4.70;;
6862;SDS011;3470;48.738;9.616;2024-03-17T23:03:21;5.90;;;4.80;;
6862;SDS011;3470;48.738;9.616;2024-03-17T23:05:48;7.40;;;4.90;;
6862;SDS011;3470;48.738;9.616;2024-03-17T23:08:19;7.50;;;4.70;;
6862;SDS011;3470;48.738;9.616;2024-03-17T23:10:45;6.07;;;4.63;;
6862;SDS011;3470;48.738;9.616;2024-03-17T23:13:11;7.43;;;4.50;;
6862;SDS011;3470;48.738;9.616;2024-03-17T23:15:40;7.13;;;5.03;;
6862;SDS011;3470;48.738;9.616;2024-03-17T23:18:08;5.87;;;4.63;;
6862;SDS011;3470;48.738;9.616;2024-03-17T23:20:34;5.70;;;4.80;;
6862;SDS011;3470;48.738;9.616;2024-03-17T23:23:00;8.83;;;5.20;;
6862;SDS011;3470;48.738;9.616;2024-03-17T23:25:28;6.23;;;5.13;;
6862;SDS011;3470;48.738;9.616;2024-03-17T23:27:54;7.20;;;4.70;;
6862;SDS011;3470;48.738;9.616;2024-03-17T23:30:20;7.30;;;5.10;;
6862;SDS011;3470;48.738;9.616;2024-03-17T23:32:46;6.00;;;4.83;;
6862;SDS011;3470;48.738;9.616;2024-03-17T23:35:11;7.57;;;5.17;;
6862;SDS011;3470;48.738;9.616;2024-03-17T23:37:37;6.17;;;5.40;;
6862;SDS011;3470;48.738;9.616;2024-03-17T23:40:04;5.43;;;4.83;;
6862;SDS011;3470;48.738;9.616;2024-03-17T23:42:39;8.73;;;4.97;;
6862;SDS011;3470;48.738;9.616;2024-03-17T23:45:06;5.67;;;5.13;;
6862;SDS011;3470;48.738;9.616;2024-03-17T23:47:33;6.90;;;5.20;;
6862;SDS011;3470;48.738;9.616;2024-03-17T23:49:59;8.27;;;5.53;;
6862;SDS011;3470;48.738;9.616;2024-03-17T23:52:29;7.30;;;5.03;;
6862;SDS011;3470;48.738;9.616;2024-03-17T23:54:56;14.00;;;5.50;;
6862;SDS011;3470;48.738;9.616;2024-03-17T23:57:22;5.27;;;4.77;;
